sensor_id;sensor_type;location;lat;lon;timestamp;pressure;altitude;pressure_sealevel;temperature;humidity
38612;BME280;24368;52.156;20.788;2023-03-19T00:04:10;100572.63;;;6.26;56.52
38612;BME280;24368;52.156;20.788;2023-03-19T00:09:12;100574.13;;;6.29;56.33
38612;BME280;24368;52.156;20.788;2023-03-19T00:14:14;100574.19;;;6.22;56.56
38612;BME280;24368;52.156;20.788;2023-03-19T00:19:16;100564.93;;;6.15;56.56
38612;BME280;24368;52.156;20.788;2023-03-19T00:24:18;100565.08;;;6.13;56.60
38612;BME280;24368;52.156;20.788;2023-03-19T00:29:21;100560.90;;;6.08;56.74
38612;BME280;24368;52.156;20.788;2023-03-19T00:34:23;100563.55;;;6.08;56.75
38612;BME280;24368;52.156;20.788;2023-03-19T00:39:25;100560.59;;;5.99;57.66
38612;BME280;24368;52.156;20.788;2023-03-19T00:44:27;100558.41;;;5.95;57.49
38612;BME280;24368;52.156;20.788;2023-03-19T00:49:28;100559.39;;;5.94;57.31
38612;BME280;24368;52.156;20.788;2023-03-19T00:54:30;100563.06;;;5.89;57.47
38612;BME280;24368;52.156;20.788;2023-03-19T00:59:32;100559.70;;;5.83;57.72
38612;BME280;24368;52.156;20.788;2023-03-19T01:04:34;100562.15;;;5.83;58.04
38612;BME280;24368;52.156;20.788;2023-03-19T01:09:36;100559.52;;;5.76;58.18
38612;BME280;24368;52.156;20.788;2023-03-19T01:14:38;100559.25;;;5.64;58.71
38612;BME280;24368;52.156;20.788;2023-03-19T01:19:39;100558.06;;;5.56;59.22
38612;BME280;24368;52.156;20.788;2023-03-19T01:24:41;100569.26;;;5.49;59.72
38612;BME280;24368;52.156;20.788;2023-03-19T01:29:43;100575.98;;;5.46;59.87
38612;BME280;24368;52.156;20.788;2023-03-19T01:34:45;100574.34;;;5.42;60.18
38612;BME280;24368;52.156;20.788;2023-03-19T01:39:47;100573.30;;;5.37;60.34
38612;BME280;24368;52.156;20.788;2023-03-19T01:44:49;100574.56;;;5.30;60.67
38612;BME280;24368;52.156;20.788;2023-03-19T01:49:53;100576.20;;;5.31;60.92
38612;BME280;24368;52.156;20.788;2023-03-19T01:54:58;100570.11;;;5.31;60.88
38612;BME280;24368;52.156;20.788;2023-03-19T02:00:03;100570.09;;;5.29;61.07
38612;BME280;24368;52.156;20.788;2023-03-19T02:05:12;100570.15;;;5.33;61.35
38612;BME280;24368;52.156;20.788;2023-03-19T02:10:16;100565.61;;;5.24;61.20
38612;BME280;24368;52.156;20.788;2023-03-19T02:15:19;100568.69;;;5.17;61.67
38612;BME280;24368;52.156;20.788;2023-03-19T02:20:28;100563.13;;;5.14;62.57
38612;BME280;24368;52.156;20.788;2023-03-19T02:25:55;100557.70;;;5.05;62.39
38612;BME280;24368;52.156;20.788;2023-03-19T02:30:59;100553.64;;;5.03;62.63
38612;BME280;24368;52.156;20.788;2023-03-19T02:36:04;100557.17;;;4.96;62.95
38612;BME280;24368;52.156;20.788;2023-03-19T02:41:08;100560.16;;;4.96;62.92
38612;BME280;24368;52.156;20.788;2023-03-19T02:46:11;100567.50;;;4.86;63.29
38612;BME280;24368;52.156;20.788;2023-03-19T02:51:13;100568.98;;;4.73;63.93
38612;BME280;24368;52.156;20.788;2023-03-19T02:56:15;100567.01;;;4.69;64.01
38612;BME280;24368;52.156;20.788;2023-03-19T03:01:17;100569.07;;;4.64;64.09
38612;BME280;24368;52.156;20.788;2023-03-19T03:06:19;100570.34;;;4.59;64.67
38612;BME280;24368;52.156;20.788;2023-03-19T03:11:21;100571.58;;;4.61;65.27
38612;BME280;24368;52.156;20.788;2023-03-19T03:16:24;100572.78;;;4.63;65.05
38612;BME280;24368;52.156;20.788;2023-03-19T03:21:26;100572.59;;;4.61;65.60
38612;BME280;24368;52.156;20.788;2023-03-19T03:26:27;100568.00;;;4.64;66.22
38612;BME280;24368;52.156;20.788;2023-03-19T03:31:29;100563.30;;;4.67;65.66
38612;BME280;24368;52.156;20.788;2023-03-19T03:36:31;100564.77;;;4.63;65.88
38612;BME280;24368;52.156;20.788;2023-03-19T03:41:34;100559.97;;;4.53;66.46
38612;BME280;24368;52.156;20.788;2023-03-19T03:46:35;100563.15;;;4.45;65.73
38612;BME280;24368;52.156;20.788;2023-03-19T03:51:37;100563.89;;;4.42;65.37
38612;BME280;24368;52.156;20.788;2023-03-19T03:56:39;100563.27;;;4.43;65.28
38612;BME280;24368;52.156;20.788;2023-03-19T04:01:41;100556.09;;;4.44;65.14
38612;BME280;24368;52.156;20.788;2023-03-19T04:06:43;100554.70;;;4.43;65.69
38612;BME280;24368;52.156;20.788;2023-03-19T04:11:44;100558.45;;;4.37;65.79
38612;BME280;24368;52.156;20.788;2023-03-19T04:16:46;100554.14;;;4.34;66.60
38612;BME280;24368;52.156;20.788;2023-03-19T04:21:48;100550.66;;;4.24;66.89
38612;BME280;24368;52.156;20.788;2023-03-19T04:26:50;100554.38;;;4.16;67.23
38612;BME280;24368;52.156;20.788;2023-03-19T04:31:53;100548.25;;;4.08;67.83
38612;BME280;24368;52.156;20.788;2023-03-19T04:36:55;100551.33;;;4.05;68.37
38612;BME280;24368;52.156;20.788;2023-03-19T04:41:57;100552.05;;;4.04;68.63
38612;BME280;24368;52.156;20.788;2023-03-19T04:46:59;100548.52;;;4.05;68.99
38612;BME280;24368;52.156;20.788;2023-03-19T04:52:02;100554.70;;;3.91;69.16
38612;BME280;24368;52.156;20.788;2023-03-19T04:57:04;100553.84;;;3.88;69.72
38612;BME280;24368;52.156;20.788;2023-03-19T05:02:06;100560.08;;;3.86;69.51
38612;BME280;24368;52.156;20.788;2023-03-19T05:07:07;100559.00;;;3.85;69.81
38612;BME280;24368;52.156;20.788;2023-03-19T05:12:10;100568.70;;;3.83;69.21
38612;BME280;24368;52.156;20.788;2023-03-19T05:17:12;100574.17;;;3.77;69.83
38612;BME280;24368;52.156;20.788;2023-03-19T05:22:15;100576.72;;;3.76;69.74
38612;BME280;24368;52.156;20.788;2023-03-19T05:27:17;100576.64;;;3.77;69.56
38612;BME280;24368;52.156;20.788;2023-03-19T05:32:19;100572.04;;;3.83;69.16
38612;BME280;24368;52.156;20.788;2023-03-19T05:37:21;100570.63;;;3.88;68.98
38612;BME280;24368;52.156;20.788;2023-03-19T05:42:23;100569.73;;;3.96;68.32
38612;BME280;24368;52.156;20.788;2023-03-19T05:47:25;100572.54;;;4.10;67.29
38612;BME280;24368;52.156;20.788;2023-03-19T05:52:27;100566.46;;;4.22;66.95
38612;BME280;24368;52.156;20.788;2023-03-19T05:57:29;100566.66;;;4.39;66.03
38612;BME280;24368;52.156;20.788;2023-03-19T06:02:32;100567.91;;;4.54;66.38
38612;BME280;24368;52.156;20.788;2023-03-19T06:07:34;100566.70;;;4.65;65.63
38612;BME280;24368;52.156;20.788;2023-03-19T06:12:36;100567.93;;;4.70;65.87
38612;BME280;24368;52.156;20.788;2023-03-19T06:17:38;100572.42;;;4.76;66.17
38612;BME280;24368;52.156;20.788;2023-03-19T06:22:40;100576.41;;;4.86;65.09
38612;BME280;24368;52.156;20.788;2023-03-19T06:27:42;100575.52;;;5.01;64.12
38612;BME280;24368;52.156;20.788;2023-03-19T06:32:44;100575.45;;;5.22;62.90
38612;BME280;24368;52.156;20.788;2023-03-19T06:37:46;100576.25;;;5.35;62.99
38612;BME280;24368;52.156;20.788;2023-03-19T06:42:49;100583.50;;;5.57;61.59
38612;BME280;24368;52.156;20.788;2023-03-19T06:47:51;100583.59;;;5.77;61.23
38612;BME280;24368;52.156;20.788;2023-03-19T06:52:54;100592.83;;;5.91;60.85
38612;BME280;24368;52.156;20.788;2023-03-19T06:57:56;100590.95;;;6.02;60.22
38612;BME280;24368;52.156;20.788;2023-03-19T07:02:58;100592.21;;;6.19;58.97
38612;BME280;24368;52.156;20.788;2023-03-19T07:08:01;100596.67;;;6.23;59.66
38612;BME280;24368;52.156;20.788;2023-03-19T07:13:04;100593.25;;;6.31;59.73
38612;BME280;24368;52.156;20.788;2023-03-19T07:18:06;100599.02;;;6.48;59.69
38612;BME280;24368;52.156;20.788;2023-03-19T07:23:08;100597.64;;;6.72;59.16
38612;BME280;24368;52.156;20.788;2023-03-19T07:28:10;100595.45;;;7.08;57.58
38612;BME280;24368;52.156;20.788;2023-03-19T07:33:12;100592.23;;;7.28;57.02
38612;BME280;24368;52.156;20.788;2023-03-19T07:38:15;100595.38;;;7.59;56.34
38612;BME280;24368;52.156;20.788;2023-03-19T07:43:17;100601.34;;;8.01;54.97
38612;BME280;24368;52.156;20.788;2023-03-19T07:48:19;100603.65;;;8.17;54.35
38612;BME280;24368;52.156;20.788;2023-03-19T07:53:21;100603.20;;;8.18;54.12
38612;BME280;24368;52.156;20.788;2023-03-19T07:58:24;100601.03;;;8.43;53.67
38612;BME280;24368;52.156;20.788;2023-03-19T08:03:26;100599.20;;;8.54;53.69
38612;BME280;24368;52.156;20.788;2023-03-19T08:08:30;100594.42;;;8.82;53.14
38612;BME280;24368;52.156;20.788;2023-03-19T08:13:32;100591.77;;;8.96;52.42
38612;BME280;24368;52.156;20.788;2023-03-19T08:18:35;100594.40;;;9.04;52.21
38612;BME280;24368;52.156;20.788;2023-03-19T08:23:37;100593.70;;;9.24;51.95
38612;BME280;24368;52.156;20.788;2023-03-19T08:28:39;100595.44;;;9.30;51.78
38612;BME280;24368;52.156;20.788;2023-03-19T08:33:41;100591.15;;;9.46;51.26
38612;BME280;24368;52.156;20.788;2023-03-19T08:38:43;100585.63;;;9.45;51.49
38612;BME280;24368;52.156;20.788;2023-03-19T08:43:45;100591.63;;;9.69;51.27
38612;BME280;24368;52.156;20.788;2023-03-19T08:48:48;100587.58;;;9.80;50.60
38612;BME280;24368;52.156;20.788;2023-03-19T08:53:50;100584.35;;;9.90;50.20
38612;BME280;24368;52.156;20.788;2023-03-19T08:58:55;100581.73;;;9.98;49.90
38612;BME280;24368;52.156;20.788;2023-03-19T09:03:57;100588.07;;;10.16;49.80
38612;BME280;24368;52.156;20.788;2023-03-19T09:08:58;100590.14;;;10.20;49.55
38612;BME280;24368;52.156;20.788;2023-03-19T09:14:01;100585.13;;;10.33;49.40
38612;BME280;24368;52.156;20.788;2023-03-19T09:19:03;100586.61;;;10.45;49.54
38612;BME280;24368;52.156;20.788;2023-03-19T09:24:06;100582.08;;;10.66;49.14
38612;BME280;24368;52.156;20.788;2023-03-19T09:29:07;100577.14;;;10.83;48.49
38612;BME280;24368;52.156;20.788;2023-03-19T09:34:09;100570.02;;;10.96;48.00
38612;BME280;24368;52.156;20.788;2023-03-19T09:39:12;100569.14;;;11.04;47.48
38612;BME280;24368;52.156;20.788;2023-03-19T09:44:27;100564.61;;;11.00;47.47
38612;BME280;24368;52.156;20.788;2023-03-19T09:49:37;100555.27;;;11.08;47.76
38612;BME280;24368;52.156;20.788;2023-03-19T09:54:48;100555.88;;;11.19;47.49
38612;BME280;24368;52.156;20.788;2023-03-19T09:59:53;100561.46;;;11.39;46.90
38612;BME280;24368;52.156;20.788;2023-03-19T10:05:17;100563.06;;;11.47;46.32
38612;BME280;24368;52.156;20.788;2023-03-19T10:16:04;100565.44;;;11.80;46.09
38612;BME280;24368;52.156;20.788;2023-03-19T10:21:25;100560.31;;;11.91;46.28
38612;BME280;24368;52.156;20.788;2023-03-19T10:26:33;100555.34;;;12.22;46.30
38612;BME280;24368;52.156;20.788;2023-03-19T10:36:45;100547.63;;;12.78;44.53
38612;BME280;24368;52.156;20.788;2023-03-19T10:42:09;100547.98;;;13.18;43.65
38612;BME280;24368;52.156;20.788;2023-03-19T10:47:17;100550.58;;;13.31;42.50
38612;BME280;24368;52.156;20.788;2023-03-19T10:52:24;100550.18;;;13.33;42.81
38612;BME280;24368;52.156;20.788;2023-03-19T10:57:28;100546.89;;;13.41;42.49
38612;BME280;24368;52.156;20.788;2023-03-19T11:02:32;100545.66;;;13.37;42.68
38612;BME280;24368;52.156;20.788;2023-03-19T11:07:36;100540.55;;;13.74;41.84
38612;BME280;24368;52.156;20.788;2023-03-19T11:12:38;100533.52;;;14.04;41.61
38612;BME280;24368;52.156;20.788;2023-03-19T11:17:47;100525.21;;;14.27;41.16
38612;BME280;24368;52.156;20.788;2023-03-19T11:22:51;100521.90;;;14.54;40.04
38612;BME280;24368;52.156;20.788;2023-03-19T11:28:08;100514.31;;;14.22;39.78
38612;BME280;24368;52.156;20.788;2023-03-19T11:39:14;100501.23;;;14.37;39.21
38612;BME280;24368;52.156;20.788;2023-03-19T12:00:23;100481.66;;;17.95;33.11
38612;BME280;24368;52.156;20.788;2023-03-19T12:05:48;100487.64;;;17.64;33.21
38612;BME280;24368;52.156;20.788;2023-03-19T12:11:12;100487.78;;;17.12;34.20
38612;BME280;24368;52.156;20.788;2023-03-19T12:43:20;100463.50;;;17.09;34.39
38612;BME280;24368;52.156;20.788;2023-03-19T12:48:34;100456.32;;;16.79;34.55
38612;BME280;24368;52.156;20.788;2023-03-19T12:53:49;100458.45;;;16.67;34.59
38612;BME280;24368;52.156;20.788;2023-03-19T13:04:09;100452.38;;;16.74;34.74
38612;BME280;24368;52.156;20.788;2023-03-19T13:14:43;100432.56;;;19.89;30.15
38612;BME280;24368;52.156;20.788;2023-03-19T13:19:50;100428.13;;;21.29;28.13
38612;BME280;24368;52.156;20.788;2023-03-19T13:24:55;100431.84;;;20.17;29.08
38612;BME280;24368;52.156;20.788;2023-03-19T13:35:45;100435.82;;;16.98;33.85
38612;BME280;24368;52.156;20.788;2023-03-19T13:40:54;100427.60;;;16.57;34.60
38612;BME280;24368;52.156;20.788;2023-03-19T13:46:57;100432.45;;;16.36;35.27
38612;BME280;24368;52.156;20.788;2023-03-19T13:52:33;100420.83;;;16.74;34.83
38612;BME280;24368;52.156;20.788;2023-03-19T13:57:34;100420.36;;;16.47;34.95
38612;BME280;24368;52.156;20.788;2023-03-19T14:07:40;100421.38;;;16.30;35.39
38612;BME280;24368;52.156;20.788;2023-03-19T14:12:43;100415.95;;;16.76;34.20
38612;BME280;24368;52.156;20.788;2023-03-19T14:28:09;100415.45;;;17.25;32.84
38612;BME280;24368;52.156;20.788;2023-03-19T14:33:24;100417.33;;;16.25;34.54
38612;BME280;24368;52.156;20.788;2023-03-19T14:54:39;100415.52;;;15.39;36.40
38612;BME280;24368;52.156;20.788;2023-03-19T14:59:43;100400.99;;;15.18;37.23
38612;BME280;24368;52.156;20.788;2023-03-19T15:04:47;100395.21;;;15.01;37.90
38612;BME280;24368;52.156;20.788;2023-03-19T15:09:53;100399.61;;;14.73;38.24
38612;BME280;24368;52.156;20.788;2023-03-19T15:15:29;100396.80;;;14.50;38.75
38612;BME280;24368;52.156;20.788;2023-03-19T15:20:41;100391.35;;;14.34;39.03
38612;BME280;24368;52.156;20.788;2023-03-19T15:30:58;100390.44;;;14.17;40.05
38612;BME280;24368;52.156;20.788;2023-03-19T15:41:17;100392.04;;;13.94;40.98
38612;BME280;24368;52.156;20.788;2023-03-19T15:46:30;100393.27;;;13.99;41.04
38612;BME280;24368;52.156;20.788;2023-03-19T15:51:33;100395.35;;;13.90;41.93
38612;BME280;24368;52.156;20.788;2023-03-19T15:56:37;100395.90;;;13.80;41.40
38612;BME280;24368;52.156;20.788;2023-03-19T16:01:39;100393.13;;;13.77;41.06
38612;BME280;24368;52.156;20.788;2023-03-19T16:06:41;100400.41;;;13.67;41.42
38612;BME280;24368;52.156;20.788;2023-03-19T16:11:44;100406.73;;;13.58;41.95
38612;BME280;24368;52.156;20.788;2023-03-19T16:16:47;100415.41;;;13.50;42.19
38612;BME280;24368;52.156;20.788;2023-03-19T16:21:49;100420.89;;;13.37;42.68
38612;BME280;24368;52.156;20.788;2023-03-19T16:26:51;100419.52;;;13.28;42.62
38612;BME280;24368;52.156;20.788;2023-03-19T16:32:01;100421.31;;;13.21;42.67
38612;BME280;24368;52.156;20.788;2023-03-19T16:42:48;100435.25;;;12.85;44.15
38612;BME280;24368;52.156;20.788;2023-03-19T16:47:53;100436.62;;;12.81;43.85
38612;BME280;24368;52.156;20.788;2023-03-19T16:52:56;100440.13;;;12.60;45.09
38612;BME280;24368;52.156;20.788;2023-03-19T16:58:17;100440.85;;;12.50;45.94
38612;BME280;24368;52.156;20.788;2023-03-19T17:03:19;100439.64;;;12.35;47.41
38612;BME280;24368;52.156;20.788;2023-03-19T17:08:21;100440.21;;;12.26;47.94
38612;BME280;24368;52.156;20.788;2023-03-19T17:13:26;100445.62;;;12.15;50.07
38612;BME280;24368;52.156;20.788;2023-03-19T17:18:33;100443.44;;;11.94;51.37
38612;BME280;24368;52.156;20.788;2023-03-19T17:23:36;100440.41;;;11.79;51.54
38612;BME280;24368;52.156;20.788;2023-03-19T17:28:38;100447.56;;;11.66;52.49
38612;BME280;24368;52.156;20.788;2023-03-19T17:33:41;100448.06;;;11.52;52.67
38612;BME280;24368;52.156;20.788;2023-03-19T17:38:43;100448.59;;;11.39;53.90
38612;BME280;24368;52.156;20.788;2023-03-19T17:43:45;100449.27;;;11.36;54.57
38612;BME280;24368;52.156;20.788;2023-03-19T17:48:48;100451.05;;;11.16;55.17
38612;BME280;24368;52.156;20.788;2023-03-19T17:53:53;100446.84;;;11.02;55.64
38612;BME280;24368;52.156;20.788;2023-03-19T17:58:57;100440.63;;;10.99;56.26
38612;BME280;24368;52.156;20.788;2023-03-19T18:03:59;100435.16;;;10.92;57.97
38612;BME280;24368;52.156;20.788;2023-03-19T18:09:02;100433.13;;;10.81;59.08
38612;BME280;24368;52.156;20.788;2023-03-19T18:14:04;100427.06;;;10.75;59.81
38612;BME280;24368;52.156;20.788;2023-03-19T18:19:18;100422.48;;;10.64;61.01
38612;BME280;24368;52.156;20.788;2023-03-19T18:24:21;100426.70;;;10.64;60.92
38612;BME280;24368;52.156;20.788;2023-03-19T18:29:23;100425.98;;;10.61;61.59
38612;BME280;24368;52.156;20.788;2023-03-19T18:34:25;100430.09;;;10.57;61.88
38612;BME280;24368;52.156;20.788;2023-03-19T18:39:28;100425.08;;;10.37;61.85
38612;BME280;24368;52.156;20.788;2023-03-19T18:44:30;100429.45;;;10.25;63.65
38612;BME280;24368;52.156;20.788;2023-03-19T18:49:32;100428.48;;;10.19;63.97
38612;BME280;24368;52.156;20.788;2023-03-19T18:54:34;100432.64;;;10.16;63.66
38612;BME280;24368;52.156;20.788;2023-03-19T18:59:36;100431.67;;;10.02;64.04
38612;BME280;24368;52.156;20.788;2023-03-19T19:04:38;100430.56;;;10.01;64.85
38612;BME280;24368;52.156;20.788;2023-03-19T19:09:42;100436.44;;;9.84;65.24
38612;BME280;24368;52.156;20.788;2023-03-19T19:14:44;100433.86;;;9.81;64.51
38612;BME280;24368;52.156;20.788;2023-03-19T19:19:47;100437.45;;;9.88;63.65
38612;BME280;24368;52.156;20.788;2023-03-19T19:24:48;100433.88;;;9.76;64.46
38612;BME280;24368;52.156;20.788;2023-03-19T19:29:51;100432.05;;;9.73;65.24
38612;BME280;24368;52.156;20.788;2023-03-19T19:34:54;100433.48;;;9.71;65.21
38612;BME280;24368;52.156;20.788;2023-03-19T19:39:57;100429.73;;;9.69;65.47
38612;BME280;24368;52.156;20.788;2023-03-19T19:44:59;100430.79;;;9.64;65.78
38612;BME280;24368;52.156;20.788;2023-03-19T19:50:02;100435.61;;;9.57;65.82
38612;BME280;24368;52.156;20.788;2023-03-19T19:55:05;100435.48;;;9.64;65.54
38612;BME280;24368;52.156;20.788;2023-03-19T20:00:22;100440.79;;;9.49;67.01
38612;BME280;24368;52.156;20.788;2023-03-19T20:05:30;100442.17;;;9.40;64.64
38612;BME280;24368;52.156;20.788;2023-03-19T20:10:32;100434.08;;;9.46;66.11
38612;BME280;24368;52.156;20.788;2023-03-19T20:15:34;100436.41;;;9.43;63.98
38612;BME280;24368;52.156;20.788;2023-03-19T20:20:36;100435.02;;;9.34;65.15
38612;BME280;24368;52.156;20.788;2023-03-19T20:25:38;100434.06;;;9.07;67.29
38612;BME280;24368;52.156;20.788;2023-03-19T20:30:40;100434.29;;;8.87;67.16
38612;BME280;24368;52.156;20.788;2023-03-19T20:35:43;100430.20;;;9.12;61.19
38612;BME280;24368;52.156;20.788;2023-03-19T20:40:54;100427.55;;;9.44;61.08
38612;BME280;24368;52.156;20.788;2023-03-19T20:45:59;100428.71;;;8.94;62.34
38612;BME280;24368;52.156;20.788;2023-03-19T20:51:02;100424.64;;;9.38;58.18
38612;BME280;24368;52.156;20.788;2023-03-19T20:56:13;100419.79;;;9.55;56.91
38612;BME280;24368;52.156;20.788;2023-03-19T21:01:16;100420.48;;;9.28;61.42
38612;BME280;24368;52.156;20.788;2023-03-19T21:06:21;100421.64;;;8.96;62.80
38612;BME280;24368;52.156;20.788;2023-03-19T21:11:35;100420.59;;;8.98;60.16
38612;BME280;24368;52.156;20.788;2023-03-19T21:16:38;100418.90;;;9.19;58.24
38612;BME280;24368;52.156;20.788;2023-03-19T21:21:40;100428.08;;;9.16;58.23
38612;BME280;24368;52.156;20.788;2023-03-19T21:26:44;100426.59;;;9.14;58.07
38612;BME280;24368;52.156;20.788;2023-03-19T21:31:47;100417.92;;;9.08;58.27
38612;BME280;24368;52.156;20.788;2023-03-19T21:36:48;100419.73;;;9.11;57.50
38612;BME280;24368;52.156;20.788;2023-03-19T21:41:50;100417.34;;;9.13;57.50
38612;BME280;24368;52.156;20.788;2023-03-19T21:46:52;100412.57;;;9.09;57.67
38612;BME280;24368;52.156;20.788;2023-03-19T21:51:54;100409.90;;;9.03;57.84
38612;BME280;24368;52.156;20.788;2023-03-19T21:56:57;100407.27;;;8.98;57.80
38612;BME280;24368;52.156;20.788;2023-03-19T22:01:59;100409.59;;;8.96;57.84
38612;BME280;24368;52.156;20.788;2023-03-19T22:07:01;100408.02;;;8.86;58.16
38612;BME280;24368;52.156;20.788;2023-03-19T22:12:03;100405.70;;;8.79;58.13
38612;BME280;24368;52.156;20.788;2023-03-19T22:17:07;100410.56;;;8.74;58.28
38612;BME280;24368;52.156;20.788;2023-03-19T22:22:10;100407.60;;;8.68;58.88
38612;BME280;24368;52.156;20.788;2023-03-19T22:27:15;100402.39;;;8.61;58.83
38612;BME280;24368;52.156;20.788;2023-03-19T22:32:17;100399.27;;;8.59;59.02
38612;BME280;24368;52.156;20.788;2023-03-19T22:37:27;100395.95;;;8.41;60.02
38612;BME280;24368;52.156;20.788;2023-03-19T22:42:30;100396.40;;;8.36;59.99
38612;BME280;24368;52.156;20.788;2023-03-19T22:47:34;100394.00;;;8.22;61.43
38612;BME280;24368;52.156;20.788;2023-03-19T22:52:37;100394.02;;;8.16;61.08
38612;BME280;24368;52.156;20.788;2023-03-19T22:57:39;100394.45;;;8.09;61.93
38612;BME280;24368;52.156;20.788;2023-03-19T23:02:41;100396.23;;;8.15;60.78
38612;BME280;24368;52.156;20.788;2023-03-19T23:07:45;100395.92;;;8.18;60.48
38612;BME280;24368;52.156;20.788;2023-03-19T23:12:46;100399.05;;;8.19;60.48
38612;BME280;24368;52.156;20.788;2023-03-19T23:17:49;100398.61;;;8.09;62.41
38612;BME280;24368;52.156;20.788;2023-03-19T23:22:54;100396.45;;;7.80;66.04
38612;BME280;24368;52.156;20.788;2023-03-19T23:28:00;100392.88;;;7.43;68.62
38612;BME280;24368;52.156;20.788;2023-03-19T23:33:02;100388.34;;;7.29;70.19
38612;BME280;24368;52.156;20.788;2023-03-19T23:38:04;100383.35;;;7.09;71.31
38612;BME280;24368;52.156;20.788;2023-03-19T23:43:16;100383.39;;;7.09;69.79
38612;BME280;24368;52.156;20.788;2023-03-19T23:48:23;100380.67;;;6.85;72.33
38612;BME280;24368;52.156;20.788;2023-03-19T23:53:25;100375.93;;;7.02;72.80
38612;BME280;24368;52.156;20.788;2023-03-19T23:58:31;100371.10;;;6.84;74.45
